Time;durP1;ratioP1;P1;durP2;ratioP2;P2;SDS_P1;SDS_P2;PMS_P1;PMS_P2;Temp;Humidity;BMP_temperature;BMP_pressure;BME280_temperature;BME280_humidity;BME280_pressure;Samples;Min_cycle;Max_cycle;Signal;HPM_P1;HPM_P2
2023/06/30 00:00:18;;;;;;;22.60;13.50;;;17.30;99.90;;;;;;5074841;28;20009;-82
2023/06/30 00:02:48;;;;;;;35.80;14.10;;;17.20;99.90;;;;;;5073428;28;20029;-82
2023/06/30 00:05:14;;;;;;;41.28;13.25;;;17.20;99.90;;;;;;5074064;28;20073;-79
2023/06/30 00:07:42;;;;;;;28.33;12.10;;;17.10;99.90;;;;;;5072445;28;20116;-80
2023/06/30 00:10:08;;;;;;;22.60;11.63;;;16.90;99.90;;;;;;5073125;28;20036;-77
2023/06/30 00:12:36;;;;;;;15.30;10.82;;;16.90;99.90;;;;;;5073498;28;20021;-77
2023/06/30 00:15:02;;;;;;;16.38;11.23;;;16.90;99.90;;;;;;5073978;28;20029;-78
2023/06/30 00:17:28;;;;;;;29.90;10.55;;;16.80;99.90;;;;;;5074801;28;20043;-78
2023/06/30 00:19:59;;;;;;;20.05;10.73;;;16.80;99.90;;;;;;5110223;22;20040;-75
2023/06/30 00:22:25;;;;;;;28.20;13.05;;;16.70;99.90;;;;;;5085138;28;20020;-79
2023/06/30 00:24:59;;;;;;;19.23;12.30;;;;;;;;;;5084337;28;20028;-79
2023/06/30 00:27:25;;;;;;;17.00;11.32;;;;;;;;;;5088895;28;20047;-76
2023/06/30 00:29:53;;;;;;;18.33;11.30;;;16.70;99.90;;;;;;5087488;28;20041;-75
2023/06/30 00:32:24;;;;;;;29.50;11.52;;;;;;;;;;5084146;28;20340;-76
2023/06/30 00:34:52;;;;;;;39.60;10.93;;;;;;;;;;5086946;28;20017;-76
2023/06/30 00:37:21;;;;;;;21.75;11.00;;;;;;;;;;5089249;28;20016;-76
2023/06/30 00:39:49;;;;;;;14.15;8.73;;;;;;;;;;5085179;28;20021;-76
2023/06/30 00:42:18;;;;;;;15.30;8.68;;;;;;;;;;5086129;28;20015;-75
2023/06/30 00:44:44;;;;;;;8.07;5.82;;;;;;;;;;5087908;28;20134;-75
2023/06/30 00:47:15;;;;;;;13.60;5.53;;;;;;;;;;5087574;28;20143;-76
2023/06/30 00:49:41;;;;;;;10.38;4.18;;;;;;;;;;5083882;28;20013;-77
2023/06/30 00:52:07;;;;;;;9.25;4.38;;;;;;;;;;5088022;28;20256;-77
2023/06/30 00:54:34;;;;;;;10.27;5.22;;;;;;;;;;5085565;28;20027;-75
2023/06/30 00:57:00;;;;;;;9.43;5.50;;;;;;;;;;5087368;28;20063;-76
2023/06/30 00:59:28;;;;;;;17.42;7.22;;;16.70;99.90;;;;;;5084823;28;20056;-75
2023/06/30 01:02:16;;;;;;;15.15;6.75;;;16.10;99.90;;;;;;5086343;28;20089;-76
2023/06/30 01:05:16;;;;;;;11.10;6.13;;;16.00;99.90;;;;;;5103045;28;20032;-76
2023/06/30 01:07:52;;;;;;;19.38;7.22;;;16.00;99.90;;;;;;5096922;28;20048;-75
2023/06/30 01:10:24;;;;;;;8.52;5.40;;;15.90;99.90;;;;;;5086823;28;20092;-77
2023/06/30 01:12:51;;;;;;;34.08;7.50;;;15.90;99.90;;;;;;5083929;28;20021;-75
2023/06/30 01:15:18;;;;;;;10.18;5.47;;;15.80;99.90;;;;;;5086805;28;20070;-76
2023/06/30 01:17:59;;;;;;;11.88;4.80;;;15.90;99.90;;;;;;5086937;28;20040;-76
2023/06/30 01:20:32;;;;;;;14.05;4.57;;;15.80;99.90;;;;;;5085121;28;20114;-76
2023/06/30 01:23:33;;;;;;;9.27;4.57;;;15.70;99.90;;;;;;5090324;28;20029;-75
2023/06/30 01:26:01;;;;;;;8.02;4.15;;;15.70;99.90;;;;;;5090758;28;20024;-75
2023/06/30 01:28:41;;;;;;;9.65;5.22;;;15.70;99.90;;;;;;5086927;28;20033;-75
2023/06/30 01:31:13;;;;;;;8.90;5.22;;;15.50;99.90;;;;;;5087739;28;20051;-77
2023/06/30 01:33:39;;;;;;;19.27;7.53;;;15.60;99.90;;;;;;5086847;28;20051;-77
2023/06/30 01:36:14;;;;;;;15.13;7.82;;;15.60;99.90;;;;;;5085949;28;20015;-77
2023/06/30 01:38:39;;;;;;;20.35;9.55;;;15.50;99.90;;;;;;5085793;28;20020;-76
2023/06/30 01:41:08;;;;;;;19.67;10.00;;;15.60;99.90;;;;;;5085668;28;20032;-77
2023/06/30 01:43:36;;;;;;;24.40;11.45;;;15.40;99.90;;;;;;5084786;28;20020;-77
2023/06/30 01:46:03;;;;;;;27.10;12.77;;;15.60;99.90;;;;;;5086612;28;20107;-78
2023/06/30 01:48:32;;;;;;;23.95;11.95;;;15.50;99.90;;;;;;5088832;28;20033;-77
2023/06/30 01:50:59;;;;;;;27.30;12.13;;;15.50;99.90;;;;;;5084460;28;20036;-76
2023/06/30 01:53:26;;;;;;;30.33;14.20;;;15.50;99.90;;;;;;5086858;28;20025;-78
2023/06/30 01:55:55;;;;;;;26.40;14.00;;;15.40;99.90;;;;;;5085900;28;20040;-77
2023/06/30 01:58:21;;;;;;;32.22;15.57;;;15.50;99.90;;;;;;5085320;28;20021;-76
2023/06/30 02:00:49;;;;;;;31.17;13.82;;;15.50;99.90;;;;;;5086265;28;20079;-76
2023/06/30 02:03:15;;;;;;;34.90;14.82;;;15.50;99.90;;;;;;5085775;28;20025;-76
2023/06/30 02:05:43;;;;;;;27.42;13.57;;;15.40;99.90;;;;;;5086453;28;20036;-78
2023/06/30 02:08:13;;;;;;;22.75;11.77;;;15.40;99.90;;;;;;5085584;28;20046;-79
2023/06/30 02:10:44;;;;;;;24.20;11.10;;;15.30;99.90;;;;;;5085201;28;20039;-77
2023/06/30 02:13:12;;;;;;;24.63;10.57;;;15.30;99.90;;;;;;5086664;28;20051;-78
2023/06/30 02:15:38;;;;;;;20.15;10.52;;;15.40;99.90;;;;;;5089687;28;20039;-78
2023/06/30 02:18:07;;;;;;;19.83;9.75;;;15.20;99.90;;;;;;5087076;28;20017;-78
2023/06/30 02:20:32;;;;;;;23.90;11.25;;;15.30;99.90;;;;;;5088141;28;20044;-78
2023/06/30 02:23:00;;;;;;;21.85;10.40;;;15.30;99.90;;;;;;5087380;28;20071;-78
2023/06/30 02:25:26;;;;;;;22.08;10.05;;;15.30;99.90;;;;;;5085374;28;20110;-76
2023/06/30 02:27:52;;;;;;;19.40;11.13;;;15.20;99.90;;;;;;5085336;28;20060;-77
2023/06/30 02:30:18;;;;;;;22.88;10.40;;;15.20;99.90;;;;;;5087002;28;20028;-78
2023/06/30 02:32:46;;;;;;;19.30;9.80;;;15.30;99.90;;;;;;5089112;28;20088;-78
2023/06/30 02:35:12;;;;;;;20.73;10.95;;;15.20;99.90;;;;;;5079581;28;20029;-77
2023/06/30 02:37:40;;;;;;;24.88;11.90;;;15.30;99.90;;;;;;5086966;28;20040;-79
2023/06/30 02:40:15;;;;;;;20.88;10.80;;;15.20;99.90;;;;;;5085969;28;20027;-77
2023/06/30 02:42:48;;;;;;;22.98;10.35;;;15.20;99.90;;;;;;5087050;28;20135;-77
2023/06/30 02:45:14;;;;;;;15.77;10.20;;;15.30;99.90;;;;;;5088414;28;20025;-77
2023/06/30 02:47:40;;;;;;;19.00;11.10;;;15.20;99.90;;;;;;5087419;28;20031;-78
2023/06/30 02:50:09;;;;;;;21.10;11.82;;;15.20;99.90;;;;;;5085446;28;20016;-77
2023/06/30 02:52:34;;;;;;;20.88;11.75;;;15.10;99.90;;;;;;5085654;28;20025;-77
2023/06/30 02:55:18;;;;;;;26.30;11.95;;;15.20;99.90;;;;;;5086839;28;20080;-77
2023/06/30 02:57:44;;;;;;;21.95;12.85;;;15.20;99.90;;;;;;5085844;28;20048;-77
2023/06/30 03:00:17;;;;;;;21.98;12.75;;;15.10;99.90;;;;;;5085315;28;20035;-78
2023/06/30 03:02:45;;;;;;;23.55;13.77;;;15.10;99.90;;;;;;5088260;28;20017;-78
2023/06/30 03:05:19;;;;;;;23.30;13.15;;;15.10;99.90;;;;;;5090282;28;20025;-76
2023/06/30 03:07:45;;;;;;;22.77;14.10;;;15.10;99.90;;;;;;5089664;28;20013;-77
2023/06/30 03:10:13;;;;;;;26.02;14.48;;;15.10;99.90;;;;;;5107852;28;20028;-78
2023/06/30 03:12:38;;;;;;;27.90;13.90;;;15.20;99.90;;;;;;5090655;28;20021;-76
2023/06/30 03:15:05;;;;;;;28.50;15.30;;;15.10;99.90;;;;;;5091391;28;20031;-78
2023/06/30 03:17:36;;;;;;;29.05;15.02;;;15.10;99.90;;;;;;5091902;28;20067;-78
2023/06/30 03:20:09;;;;;;;29.20;15.70;;;15.10;99.90;;;;;;5090501;28;20025;-78
2023/06/30 03:22:34;;;;;;;;;;;15.10;99.90;;;;;;5091685;28;20072;-79
2023/06/30 03:25:04;;;;;;;27.75;15.32;;;15.20;99.90;;;;;;5091040;28;19901;-78
2023/06/30 03:27:34;;;;;;;27.98;15.32;;;15.10;99.90;;;;;;5089154;28;20041;-78
2023/06/30 03:30:04;;;;;;;33.78;16.42;;;15.10;99.90;;;;;;5089976;28;20036;-75
2023/06/30 03:32:39;;;;;;;42.95;17.67;;;15.20;99.90;;;;;;5091092;28;20021;-77
2023/06/30 03:35:05;;;;;;;28.48;14.80;;;15.10;99.90;;;;;;5091227;28;20084;-79
2023/06/30 03:37:32;;;;;;;29.83;16.75;;;15.10;99.90;;;;;;5090743;28;20024;-79
2023/06/30 03:40:06;;;;;;;27.42;15.48;;;15.10;99.90;;;;;;5089606;28;20046;-78
2023/06/30 03:42:34;;;;;;;30.30;17.52;;;15.10;99.90;;;;;;5087094;28;20538;-77
2023/06/30 03:45:00;;;;;;;29.17;15.93;;;15.20;99.90;;;;;;5090652;28;20040;-78
2023/06/30 03:47:28;;;;;;;27.75;14.40;;;15.10;99.90;;;;;;5089332;28;20046;-78
2023/06/30 03:49:58;;;;;;;36.92;16.55;;;15.10;99.90;;;;;;5088991;28;20098;-78
2023/06/30 03:52:25;;;;;;;28.52;14.68;;;;;;;;;;5091242;28;20024;-78
2023/06/30 03:54:51;;;;;;;33.28;16.63;;;;;;;;;;5091031;28;20041;-77
2023/06/30 03:57:26;;;;;;;30.08;14.90;;;;;;;;;;5091291;28;20076;-79
2023/06/30 03:59:52;;;;;;;27.73;16.83;;;;;;;;;;5087366;28;20095;-78
2023/06/30 04:02:20;;;;;;;30.98;15.93;;;;;;;;;;5090322;28;20025;-79
2023/06/30 04:04:51;;;;;;;36.25;17.98;;;;;;;;;;5089722;28;20132;-80
2023/06/30 04:07:17;;;;;;;38.78;16.90;;;;;;;;;;5090801;28;20035;-78
2023/06/30 04:09:49;;;;;;;29.98;16.65;;;;;;;;;;5087748;28;20056;-79
2023/06/30 04:12:17;;;;;;;33.70;16.88;;;;;;;;;;5091102;28;20036;-78
2023/06/30 04:14:46;;;;;;;28.73;16.88;;;;;;;;;;5087983;28;20197;-79
2023/06/30 04:17:14;;;;;;;37.13;16.27;;;;;;;;;;5088610;28;20031;-79
2023/06/30 04:19:42;;;;;;;30.15;15.95;;;;;;;;;;5088104;28;20056;-78
2023/06/30 04:22:11;;;;;;;36.80;16.83;;;;;;;;;;5089221;28;20008;-79
2023/06/30 04:24:39;;;;;;;30.15;15.93;;;;;;;;;;5088930;28;20012;-77
2023/06/30 04:27:11;;;;;;;34.55;17.38;;;;;;;;;;5087232;28;20032;-79
2023/06/30 04:29:37;;;;;;;35.25;17.17;;;;;;;;;;5085825;28;20016;-78
2023/06/30 04:32:09;;;;;;;29.83;16.20;;;;;;;;;;5091144;28;20029;-78
2023/06/30 04:34:35;;;;;;;41.63;18.42;;;;;;;;;;5085272;28;20020;-78
2023/06/30 04:37:01;;;;;;;40.22;17.75;;;;;;;;;;5086602;28;20061;-79
2023/06/30 04:39:42;;;;;;;40.10;18.67;;;;;;;;;;5087728;28;20039;-79
2023/06/30 04:42:27;;;;;;;32.90;17.63;;;;;;;;;;5087906;28;20005;-79
2023/06/30 04:44:56;;;;;;;34.10;17.45;;;;;;;;;;5086633;28;20040;-79
2023/06/30 04:47:22;;;;;;;43.80;19.67;;;;;;;;;;5087419;28;20039;-78
2023/06/30 04:49:48;;;;;;;37.13;19.02;;;;;;;;;;5086979;28;20041;-78
2023/06/30 04:52:17;;;;;;;38.58;19.08;;;;;;;;;;5086903;28;20029;-78
2023/06/30 04:54:45;;;;;;;37.40;19.20;;;;;;;;;;5088962;28;20032;-79
2023/06/30 04:57:14;;;;;;;33.70;18.77;;;;;;;;;;5091638;28;20027;-77
2023/06/30 04:59:42;;;;;;;37.20;17.98;;;;;;;;;;5088163;28;20098;-78
2023/06/30 05:02:08;;;;;;;34.88;17.58;;;;;;;;;;5088261;28;20021;-79
2023/06/30 05:04:36;;;;;;;41.35;18.13;;;;;;;;;;5087751;28;20339;-78
2023/06/30 05:07:10;;;;;;;45.38;19.20;;;;;;;;;;5087401;28;20280;-77
2023/06/30 05:09:39;;;;;;;37.00;17.23;;;;;;;;;;5088098;28;20020;-77
2023/06/30 05:12:08;;;;;;;39.15;17.50;;;;;;;;;;5085317;28;20033;-78
2023/06/30 05:14:44;;;;;;;34.58;19.45;;;;;;;;;;5087705;28;20013;-77
2023/06/30 05:17:12;;;;;;;34.88;18.77;;;;;;;;;;5085297;28;20021;-78
2023/06/30 05:19:38;;;;;;;27.52;17.08;;;;;;;;;;5084423;28;20141;-77
2023/06/30 05:22:05;;;;;;;40.55;16.75;;;;;;;;;;5088950;28;20080;-78
2023/06/30 05:24:33;;;;;;;33.63;16.75;;;;;;;;;;5087701;28;20025;-76
2023/06/30 05:27:00;;;;;;;30.27;15.15;;;;;;;;;;5084369;28;20070;-77
2023/06/30 05:29:28;;;;;;;29.77;15.02;;;;;;;;;;5089838;28;20031;-78
2023/06/30 05:31:57;;;;;;;34.35;15.52;;;;;;;;;;5083049;28;20086;-77
2023/06/30 05:34:26;;;;;;;25.75;13.55;;;;;;;;;;5087163;28;20033;-78
2023/06/30 05:36:52;;;;;;;26.77;13.57;;;;;;;;;;5086443;28;20104;-77
2023/06/30 05:39:31;;;;;;;30.13;13.57;;;;;;;;;;5088548;28;20093;-78
2023/06/30 05:42:09;;;;;;;26.55;13.32;;;;;;;;;;5128156;22;20020;-77
2023/06/30 05:44:35;;;;;;;30.30;13.45;;;;;;;;;;5088098;28;20051;-78
2023/06/30 05:47:06;;;;;;;26.73;11.45;;;;;;;;;;5087042;28;20040;-77
2023/06/30 05:49:34;;;;;;;16.15;10.23;;;;;;;;;;5140648;22;20031;-79
2023/06/30 05:52:03;;;;;;;23.23;11.63;;;;;;;;;;5072838;28;20103;-78
2023/06/30 05:54:29;;;;;;;25.25;10.45;;;;;;;;;;5075103;28;20036;-81
2023/06/30 05:56:58;;;;;;;15.98;8.80;;;;;;;;;;5072667;28;20037;-78
2023/06/30 05:59:31;;;;;;;23.60;9.38;;;;;;;;;;5076078;28;20101;-79
2023/06/30 06:01:57;;;;;;;20.25;9.25;;;;;;;;;;5073666;28;20021;-78
2023/06/30 06:04:25;;;;;;;23.52;10.15;;;;;;;;;;5158406;22;20116;-79
2023/06/30 06:06:51;;;;;;;18.80;8.82;;;;;;;;;;5069232;28;20047;-78
2023/06/30 06:09:18;;;;;;;19.10;8.98;;;;;;;;;;5064085;28;20063;-76
2023/06/30 06:11:44;;;;;;;17.23;9.77;;;;;;;;;;5067346;28;20065;-78
2023/06/30 06:14:17;;;;;;;18.58;8.50;;;;;;;;;;5087573;28;20065;-79
2023/06/30 06:16:45;;;;;;;26.70;8.98;;;;;;;;;;5071980;28;20039;-77
2023/06/30 06:22:06;;;;;;;23.00;10.07;;;;;;;;;;5134520;22;20025;-77
2023/06/30 06:24:49;;;;;;;16.27;8.68;;;;;;;;;;5154111;22;20040;-79
2023/06/30 06:27:18;;;;;;;25.25;10.10;;;;;;;;;;5084939;28;20076;-77
2023/06/30 06:29:44;;;;;;;24.63;8.95;;;;;;;;;;5083957;28;20033;-77
2023/06/30 06:32:13;;;;;;;19.92;9.57;;;;;;;;;;5085547;28;20044;-77
2023/06/30 06:34:39;;;;;;;22.90;8.55;;;;;;;;;;5082398;28;20028;-78
2023/06/30 06:37:08;;;;;;;15.68;7.70;;;;;;;;;;5084188;28;20375;-76
2023/06/30 06:39:34;;;;;;;20.10;8.35;;;;;;;;;;5087817;28;20092;-77
2023/06/30 06:42:00;;;;;;;24.77;8.15;;;;;;;;;;5351335;22;20019;-80
2023/06/30 06:44:26;;;;;;;14.43;7.28;;;;;;;;;;5075853;28;20040;-80
2023/06/30 06:47:12;;;;;;;14.80;7.97;;;;;;;;;;5071563;28;20044;-77
2023/06/30 06:49:38;;;;;;;26.88;7.75;;;;;;;;;;5074166;28;20021;-81
2023/06/30 06:54:36;;;;;;;13.30;6.07;;;;;;;;;;5018278;28;20049;-76
2023/06/30 06:57:03;;;;;;;12.20;6.10;;;;;;;;;;5030718;28;20051;-76
2023/06/30 06:59:31;;;;;;;20.10;6.97;;;;;;;;;;5017080;28;20533;-76
2023/06/30 07:02:07;;;;;;;12.85;5.82;;;;;;;;;;5020403;28;20033;-78
2023/06/30 07:04:33;;;;;;;13.38;5.95;;;;;;;;;;5032430;28;20023;-78
2023/06/30 07:06:59;;;;;;;14.50;6.43;;;;;;;;;;5032493;28;20044;-77
2023/06/30 07:09:25;;;;;;;14.02;5.72;;;;;;;;;;5017042;28;20040;-80
2023/06/30 07:11:56;;;;;;;10.75;4.55;;;;;;;;;;5033597;28;20030;-79
2023/06/30 07:14:25;;;;;;;25.23;5.85;;;;;;;;;;5020423;28;20121;-79
2023/06/30 07:16:51;;;;;;;11.32;5.38;;;;;;;;;;5035198;28;20340;-78
2023/06/30 07:19:17;;;;;;;17.00;5.70;;;;;;;;;;5018182;28;20015;-77
2023/06/30 07:21:43;;;;;;;14.70;5.70;;;;;;;;;;5019575;28;20042;-80
2023/06/30 07:24:09;;;;;;;10.93;4.95;;;;;;;;;;5013943;28;20035;-78
2023/06/30 07:26:35;;;;;;;10.63;5.00;;;;;;;;;;5031093;28;20057;-78
2023/06/30 07:29:01;;;;;;;16.15;5.20;;;;;;;;;;5014740;28;20022;-75
2023/06/30 07:31:31;;;;;;;15.32;4.70;;;;;;;;;;5030762;28;20019;-77
2023/06/30 07:33:57;;;;;;;13.88;4.75;;;;;;;;;;5031148;28;20026;-76
2023/06/30 07:36:23;;;;;;;10.43;4.15;;;;;;;;;;5018009;28;20699;-78
2023/06/30 07:38:50;;;;;;;17.88;4.68;;;;;;;;;;5032766;28;20037;-76
2023/06/30 07:41:16;;;;;;;12.35;3.55;;;;;;;;;;5032185;28;20210;-78
2023/06/30 07:43:46;;;;;;;9.07;2.95;;;;;;;;;;5016816;28;20042;-80
2023/06/30 07:46:12;;;;;;;9.90;3.03;;;;;;;;;;5015293;28;20042;-78
2023/06/30 07:48:39;;;;;;;11.07;2.30;;;;;;;;;;5030859;28;20082;-78
2023/06/30 07:51:05;;;;;;;10.05;3.13;;;;;;;;;;5018811;28;20045;-79
2023/06/30 07:53:31;;;;;;;6.47;1.85;;;;;;;;;;5030782;28;20042;-76
2023/06/30 07:55:59;;;;;;;9.27;1.88;;;;;;;;;;5032984;28;20110;-79
2023/06/30 07:58:28;;;;;;;7.35;2.25;;;;;;;;;;5031386;28;20015;-77
2023/06/30 08:00:56;;;;;;;8.60;2.45;;;;;;;;;;5031302;28;20035;-78
2023/06/30 08:03:22;;;;;;;7.70;3.28;;;;;;;;;;5014089;28;20073;-78
2023/06/30 08:05:56;;;;;;;6.72;2.55;;;;;;;;;;5029922;28;20037;-76
2023/06/30 08:08:23;;;;;;;9.93;2.75;;;;;;;;;;5018623;28;20038;-76
2023/06/30 08:10:49;;;;;;;9.95;2.13;;;;;;;;;;5015636;28;20129;-76
2023/06/30 08:13:15;;;;;;;10.32;2.63;;;;;;;;;;5030439;28;20037;-78
2023/06/30 08:15:44;;;;;;;9.82;3.88;;;;;;;;;;5031261;28;20034;-78
2023/06/30 08:18:12;;;;;;;10.43;1.77;;;;;;;;;;5032823;28;20054;-76
2023/06/30 08:20:38;;;;;;;6.50;1.77;;;;;;;;;;5030598;28;20048;-76
2023/06/30 08:23:04;;;;;;;5.10;1.75;;;;;;;;;;5017673;28;20049;-79
2023/06/30 08:25:30;;;;;;;4.78;1.40;;;;;;;;;;5015017;28;20038;-79
2023/06/30 08:27:59;;;;;;;7.43;1.75;;;;;;;;;;5031660;28;20102;-78
2023/06/30 08:30:25;;;;;;;7.88;1.65;;;;;;;;;;5031130;28;20034;-79
2023/06/30 08:32:54;;;;;;;5.13;1.65;;;;;;;;;;5014676;28;20153;-77
2023/06/30 08:35:20;;;;;;;6.82;1.60;;;;;;;;;;5028895;28;20061;-78
2023/06/30 08:37:46;;;;;;;7.00;1.90;;;;;;;;;;5014927;28;20062;-79
2023/06/30 08:40:12;;;;;;;6.18;2.10;;;;;;;;;;5026710;28;20033;-78
2023/06/30 08:42:41;;;;;;;11.65;2.35;;;;;;;;;;5028999;28;20026;-78
2023/06/30 08:45:08;;;;;;;12.23;2.63;;;;;;;;;;5014640;28;20026;-82
2023/06/30 08:47:35;;;;;;;10.05;2.70;;;;;;;;;;5025566;28;20034;-79
2023/06/30 08:50:03;;;;;;;8.05;1.73;;;;;;;;;;5010177;28;20022;-78
2023/06/30 08:52:30;;;;;;;7.15;1.80;;;;;;;;;;5031236;28;20037;-78
2023/06/30 08:54:56;;;;;;;5.03;1.83;;;;;;;;;;5033403;28;20018;-79
2023/06/30 08:57:24;;;;;;;6.80;1.50;;;;;;;;;;5031203;28;20026;-79
2023/06/30 08:59:51;;;;;;;11.95;2.00;;;;;;;;;;5032442;28;20021;-77
2023/06/30 09:02:18;;;;;;;5.45;1.40;;;;;;;;;;5031750;28;20030;-80
2023/06/30 09:04:44;;;;;;;5.35;1.10;;;;;;;;;;5033610;28;20042;-82
2023/06/30 09:07:17;;;;;;;5.65;1.45;;;;;;;;;;5032206;28;20034;-79
2023/06/30 09:09:45;;;;;;;1.80;1.10;;;;;;;;;;5029019;28;20041;-78
2023/06/30 09:12:12;;;;;;;11.20;2.05;;;;;;;;;;5028218;28;20112;-82
2023/06/30 09:14:39;;;;;;;2.88;1.33;;;;;;;;;;5025499;28;20063;-82
2023/06/30 09:17:06;;;;;;;4.20;1.23;;;;;;;;;;5029893;28;20122;-77
2023/06/30 09:19:35;;;;;;;3.92;1.17;;;;;;;;;;5027611;28;20029;-78
2023/06/30 09:22:02;;;;;;;3.60;0.95;;;;;;;;;;5027476;28;20090;-81
2023/06/30 09:24:28;;;;;;;9.07;2.08;;;;;;;;;;5028760;28;20102;-76
2023/06/30 09:26:55;;;;;;;2.67;0.90;;;;;;;;;;5030991;28;20061;-82
2023/06/30 09:29:24;;;;;;;5.00;1.15;;;;;;;;;;5010479;28;20044;-79
2023/06/30 09:31:51;;;;;;;6.53;1.38;;;;;;;;;;5029379;28;20082;-76
2023/06/30 09:34:19;;;;;;;5.30;1.17;;;;;;;;;;5015324;28;20014;-80
2023/06/30 09:36:49;;;;;;;3.20;0.98;;;;;;;;;;5029717;28;20137;-79
2023/06/30 09:39:16;;;;;;;7.20;1.42;;;;;;;;;;5029675;28;20033;-77
2023/06/30 09:41:45;;;;;;;3.83;0.98;;;;;;;;;;5044505;28;20026;-79
2023/06/30 09:44:12;;;;;;;4.45;0.90;;;;;;;;;;5043549;28;20190;-77
2023/06/30 09:46:47;;;;;;;5.60;1.45;;;;;;;;;;5028915;28;20037;-76
2023/06/30 09:49:42;;;;;;;6.97;1.58;;;;;;;;;;5032581;28;20026;-77
2023/06/30 09:52:09;;;;;;;5.63;1.33;;;;;;;;;;5018485;28;20039;-77
2023/06/30 09:54:36;;;;;;;3.35;0.80;;;;;;;;;;5042692;28;20056;-77
2023/06/30 09:57:06;;;;;;;4.43;1.23;;;;;;;;;;5024772;28;20077;-76
2023/06/30 09:59:32;;;;;;;3.67;0.60;;;;;;;;;;5029270;28;20050;-81
2023/06/30 10:01:59;;;;;;;3.75;1.30;;;;;;;;;;5024628;28;20067;-82
2023/06/30 10:04:27;;;;;;;4.05;0.80;;;;;;;;;;5009798;28;20044;-80
2023/06/30 10:06:54;;;;;;;1.92;0.75;;;;;;;;;;5022740;28;20109;-78
2023/06/30 10:09:24;;;;;;;4.47;1.08;;;;;;;;;;5022722;28;20930;-79
2023/06/30 10:11:52;;;;;;;1.92;0.50;;;;;;;;;;5024574;28;20030;-78
2023/06/30 10:14:20;;;;;;;2.65;0.93;;;;;;;;;;5020985;28;20029;-79
2023/06/30 10:16:49;;;;;;;2.75;1.00;;;;;;;;;;5010548;28;20060;-77
2023/06/30 10:19:16;;;;;;;3.20;0.98;;;;;;;;;;5023367;28;20034;-78
2023/06/30 10:21:42;;;;;;;2.65;0.75;;;;;;;;;;5022384;28;20031;-79
2023/06/30 10:24:10;;;;;;;1.83;0.32;;;;;;;;;;5026456;28;20033;-78
2023/06/30 10:26:36;;;;;;;1.90;0.60;;;;;;;;;;5023737;28;20034;-78
2023/06/30 10:29:05;;;;;;;2.90;0.85;;;;;;;;;;5024764;28;20093;-77
2023/06/30 10:31:32;;;;;;;1.27;0.70;;;;;;;;;;5024432;28;20176;-78
2023/06/30 10:33:58;;;;;;;4.03;1.00;;;;;;;;;;5021462;28;20035;-78
2023/06/30 10:36:27;;;;;;;4.63;0.77;;;;;;;;;;5040501;28;20114;-78
2023/06/30 10:38:54;;;;;;;3.72;0.98;;;;;;;;;;5024036;28;20034;-76
2023/06/30 10:41:22;;;;;;;4.68;0.80;;;;;;;;;;5023511;28;20064;-83
2023/06/30 10:44:03;;;;;;;2.78;0.60;;;;;;;;;;5021066;28;20109;-79
2023/06/30 10:46:41;;;;;;;3.80;1.33;;;;;;;;;;5024894;28;20132;-82
2023/06/30 10:49:08;;;;;;;2.10;0.77;;;;;;;;;;5021776;28;20105;-81
2023/06/30 10:51:38;;;;;;;3.88;0.80;;;;;;;;;;5005628;28;20026;-77
2023/06/30 10:54:04;;;;;;;3.75;1.15;;;;;;;;;;5022207;28;20022;-78
2023/06/30 10:56:30;;;;;;;4.65;0.93;;;;;;;;;;5022942;28;20033;-82
2023/06/30 10:58:58;;;;;;;3.95;0.80;;;;;;;;;;5022911;28;20034;-76
2023/06/30 11:01:26;;;;;;;1.70;0.70;;;;;;;;;;5039513;28;20048;-79
2023/06/30 11:03:56;;;;;;;6.82;1.20;;;;;;;;;;5020991;28;20050;-81
2023/06/30 11:06:23;;;;;;;3.10;1.02;;;;;;;;;;5022217;28;20094;-82
2023/06/30 11:09:02;;;;;;;5.50;1.08;;;;;;;;;;5021454;28;20041;-78
2023/06/30 11:11:28;;;;;;;5.15;0.88;;;;;;;;;;5020040;28;20064;-83
2023/06/30 11:14:06;;;;;;;1.80;0.55;;;;;;;;;;5022170;28;20045;-82
2023/06/30 11:16:51;;;;;;;2.63;0.52;;;;;;;;;;5021520;28;20030;-80
2023/06/30 11:19:24;;;;;;;4.35;0.90;;;;;;;;;;5022770;28;20036;-78
2023/06/30 11:22:10;;;;;;;5.65;0.82;;;;;;;;;;5026217;28;20034;-79
2023/06/30 11:24:37;;;;;;;4.88;0.73;;;;;;;;;;5011411;28;20077;-79
2023/06/30 11:27:04;;;;;;;2.55;0.80;;;;;;;;;;5030224;28;20093;-76
2023/06/30 11:29:30;;;;;;;3.45;0.80;;;;;;;;;;5027869;28;20101;-82
2023/06/30 11:31:56;;;;;;;2.50;0.65;;;;;;;;;;5027690;28;20049;-77
2023/06/30 11:34:22;;;;;;;3.50;0.77;;;;;;;;;;5030396;28;20025;-76
2023/06/30 11:36:48;;;;;;;1.92;0.70;;;;;;;;;;5018054;28;20038;-76
2023/06/30 11:39:14;;;;;;;4.88;1.02;;;;;;;;;;5032486;28;20037;-79
2023/06/30 11:41:40;;;;;;;5.20;1.20;;;;;;;;;;5028214;28;20040;-78
2023/06/30 11:44:12;;;;;;;2.67;0.85;;;;;;;;;;5026120;28;20018;-76
2023/06/30 11:46:39;;;;;;;3.13;1.10;;;;;;;;;;5029201;28;20046;-79
2023/06/30 11:49:05;;;;;;;1.50;0.80;;;;;;;;;;5027475;28;20038;-80
2023/06/30 11:51:32;;;;;;;3.75;0.85;;;;;;;;;;5043935;28;20056;-78
2023/06/30 11:53:58;;;;;;;1.80;0.90;;;;;;;;;;5029039;28;20155;-77
2023/06/30 11:56:24;;;;;;;4.22;0.93;;;;;;;;;;5029967;28;20029;-78
2023/06/30 11:58:51;;;;;;;3.47;1.00;;;;;;;;;;5029157;28;20029;-78
2023/06/30 12:01:19;;;;;;;1.70;0.98;;;;;;;;;;5031341;28;20275;-76
2023/06/30 12:03:45;;;;;;;5.78;0.77;;;;;;;;;;5034697;28;20010;-77
2023/06/30 12:06:11;;;;;;;1.75;0.77;;;;;;;;;;5029150;28;20042;-77
2023/06/30 12:08:38;;;;;;;5.53;0.75;;;;;;;;;;5016522;28;20041;-76
2023/06/30 12:11:08;;;;;;;2.58;0.77;;;;;;;;;;5029313;28;20038;-80
2023/06/30 12:13:34;;;;;;;3.70;1.25;;;;;;;;;;5026753;28;20041;-77
2023/06/30 12:16:02;;;;;;;2.13;0.88;;;;;;;;;;5025432;28;20032;-76
2023/06/30 12:18:31;;;;;;;3.05;1.00;;;;;;;;;;5026707;28;20020;-78
2023/06/30 12:20:58;;;;;;;2.17;0.75;;;;;;;;;;5026588;28;20023;-78
2023/06/30 12:23:30;;;;;;;3.13;0.95;;;;;;;;;;5042603;28;20048;-79
2023/06/30 12:25:56;;;;;;;;;;;;;;;;;;5043472;28;20030;-79
2023/06/30 12:28:22;;;;;;;3.75;1.17;;;;;;;;;;5027172;28;19973;-78
2023/06/30 12:30:48;;;;;;;6.90;1.23;;;;;;;;;;5025818;28;20053;-78
2023/06/30 12:33:19;;;;;;;4.88;1.20;;;;;;;;;;5025323;28;20038;-79
2023/06/30 12:35:46;;;;;;;4.47;1.10;;;;;;;;;;5025252;28;20026;-78
2023/06/30 12:38:13;;;;;;;4.15;1.20;;;;;;;;;;5027021;28;20030;-79
2023/06/30 12:40:39;;;;;;;5.53;1.58;;;;;;;;;;5043201;28;20023;-80
2023/06/30 12:43:05;;;;;;;4.40;1.27;;;;;;;;;;5030192;28;20032;-76
2023/06/30 12:45:31;;;;;;;2.40;1.23;;;;;;;;;;5031768;28;20050;-77
2023/06/30 12:47:57;;;;;;;5.35;0.85;;;;;;;;;;5031425;28;20089;-78
2023/06/30 12:50:23;;;;;;;6.05;1.45;;;;;;;;;;5030435;28;20053;-77
2023/06/30 12:52:50;;;;;;;2.13;0.90;;;;;;;;;;5029831;28;20033;-78
2023/06/30 12:55:16;;;;;;;3.60;1.15;;;;;;;;;;5033308;28;20042;-78
2023/06/30 12:57:42;;;;;;;3.58;1.10;;;;;;;;;;5032052;28;20117;-80
2023/06/30 13:00:11;;;;;;;6.65;0.98;;;;;;;;;;5029463;28;20038;-80
2023/06/30 13:02:37;;;;;;;3.50;0.95;;;;;;;;;;5045770;28;20021;-77
2023/06/30 13:05:04;;;;;;;3.72;1.10;;;;;;;;;;5030123;28;20037;-77
2023/06/30 13:07:32;;;;;;;3.63;1.10;;;;;;;;;;5029178;28;20084;-77
2023/06/30 13:09:58;;;;;;;5.15;1.38;;;;;;;;;;5027380;28;20111;-78
2023/06/30 13:12:26;;;;;;;2.75;1.25;;;;;;;;;;5028119;28;20652;-78
2023/06/30 13:14:53;;;;;;;3.55;1.10;;;;;;;;;;5203600;22;20071;-79
2023/06/30 13:17:20;;;;;;;3.92;1.02;;;;;;;;;;5070332;28;20051;-78
2023/06/30 13:19:46;;;;;;;5.68;1.35;;;;;;;;;;5069792;28;20029;-78
2023/06/30 13:22:13;;;;;;;8.18;1.52;;;;;;;;;;5070929;28;20013;-78
2023/06/30 13:24:39;;;;;;;2.85;0.88;;;;;;;;;;5086167;28;20017;-77
2023/06/30 13:27:05;;;;;;;6.15;1.02;;;;;;;;;;5070613;28;20059;-78
2023/06/30 13:29:32;;;;;;;2.70;0.90;;;;;;;;;;5079665;28;20039;-84
2023/06/30 13:31:58;;;;;;;2.25;1.20;;;;;;;;;;5064520;28;20037;-81
2023/06/30 13:34:24;;;;;;;3.88;1.30;;;;;;;;;;5070119;28;20037;-84
2023/06/30 13:36:50;;;;;;;4.22;1.67;;;;;;;;;;5052583;28;20021;-88
2023/06/30 13:39:16;;;;;;;4.32;1.17;;;;;;;;;;5067097;28;20025;-84
2023/06/30 13:41:43;;;;;;;2.95;1.25;;;;;;;;;;5059068;28;20037;-81
2023/06/30 13:44:09;;;;;;;4.13;1.00;;;;;;;;;;5056406;28;20028;-85
2023/06/30 13:46:35;;;;;;;4.32;0.98;;;;;;;;;;5069916;28;20045;-88
2023/06/30 13:49:01;;;;;;;5.55;1.58;;;;;;;;;;5053197;28;20029;-87
2023/06/30 13:51:27;;;;;;;5.38;1.25;;;;;;;;;;5053142;28;20029;-88
2023/06/30 13:53:53;;;;;;;6.00;1.60;;;;;;;;;;5052119;28;20057;-87
2023/06/30 13:56:19;;;;;;;3.05;1.00;;;;;;;;;;5045357;28;20029;-89
2023/06/30 13:58:45;;;;;;;8.00;1.80;;;;;;;;;;5051100;28;20039;-85
2023/06/30 14:01:11;;;;;;;2.15;1.02;;;;;;;;;;5052474;28;20037;-85
2023/06/30 14:03:39;;;;;;;8.45;1.38;;;;;;;;;;5051341;28;20040;-89
2023/06/30 14:06:05;;;;;;;3.00;1.40;;;;;;;;;;5051996;28;20072;-88
2023/06/30 14:08:33;;;;;;;6.78;1.75;;;;;;;;;;5052138;28;20422;-88
2023/06/30 14:10:59;;;;;;;6.35;1.50;;;;;;;;;;5052586;28;20024;-87
2023/06/30 14:13:27;;;;;;;3.58;1.40;;;;;;;;;;5052459;28;20052;-82